sensor_id;sensor_type;location;lat;lon;timestamp;P1;durP1;ratioP1;P2;durP2;ratioP2
18610;SDS011;9435;52.122;5.502;2023-03-14T00:00:13;20.17;;;4.32;;
18610;SDS011;9435;52.122;5.502;2023-03-14T00:02:42;15.27;;;4.05;;
18610;SDS011;9435;52.122;5.502;2023-03-14T00:05:09;17.67;;;4.65;;
18610;SDS011;9435;52.122;5.502;2023-03-14T00:07:37;17.52;;;4.07;;
18610;SDS011;9435;52.122;5.502;2023-03-14T00:10:06;17.77;;;4.40;;
18610;SDS011;9435;52.122;5.502;2023-03-14T00:12:35;15.82;;;4.40;;
18610;SDS011;9435;52.122;5.502;2023-03-14T00:15:02;14.57;;;4.00;;
18610;SDS011;9435;52.122;5.502;2023-03-14T00:17:32;17.65;;;3.88;;
18610;SDS011;9435;52.122;5.502;2023-03-14T00:20:01;22.02;;;3.80;;
18610;SDS011;9435;52.122;5.502;2023-03-14T00:22:33;19.63;;;3.45;;
18610;SDS011;9435;52.122;5.502;2023-03-14T00:25:00;19.05;;;3.50;;
18610;SDS011;9435;52.122;5.502;2023-03-14T00:27:28;17.50;;;3.20;;
18610;SDS011;9435;52.122;5.502;2023-03-14T00:29:55;20.77;;;3.58;;
18610;SDS011;9435;52.122;5.502;2023-03-14T00:32:22;19.85;;;3.35;;
18610;SDS011;9435;52.122;5.502;2023-03-14T00:34:49;21.90;;;3.28;;
18610;SDS011;9435;52.122;5.502;2023-03-14T00:37:18;19.02;;;3.00;;
18610;SDS011;9435;52.122;5.502;2023-03-14T00:39:45;20.30;;;3.20;;
18610;SDS011;9435;52.122;5.502;2023-03-14T00:42:12;17.50;;;3.00;;
18610;SDS011;9435;52.122;5.502;2023-03-14T00:44:39;17.88;;;2.85;;
18610;SDS011;9435;52.122;5.502;2023-03-14T00:47:06;14.45;;;2.63;;
18610;SDS011;9435;52.122;5.502;2023-03-14T00:49:34;17.20;;;3.25;;
18610;SDS011;9435;52.122;5.502;2023-03-14T00:52:01;15.10;;;3.00;;
18610;SDS011;9435;52.122;5.502;2023-03-14T00:54:29;11.30;;;2.72;;
18610;SDS011;9435;52.122;5.502;2023-03-14T00:56:57;18.55;;;3.05;;
18610;SDS011;9435;52.122;5.502;2023-03-14T00:59:24;12.20;;;2.55;;
18610;SDS011;9435;52.122;5.502;2023-03-14T01:01:51;14.55;;;2.58;;
18610;SDS011;9435;52.122;5.502;2023-03-14T01:04:18;14.07;;;2.33;;
18610;SDS011;9435;52.122;5.502;2023-03-14T01:06:45;10.52;;;2.20;;
18610;SDS011;9435;52.122;5.502;2023-03-14T01:09:12;14.23;;;2.15;;
18610;SDS011;9435;52.122;5.502;2023-03-14T01:11:40;17.70;;;2.30;;
18610;SDS011;9435;52.122;5.502;2023-03-14T01:14:11;12.75;;;2.28;;
18610;SDS011;9435;52.122;5.502;2023-03-14T01:16:38;15.52;;;2.25;;
18610;SDS011;9435;52.122;5.502;2023-03-14T01:19:06;10.82;;;2.13;;
18610;SDS011;9435;52.122;5.502;2023-03-14T01:21:34;12.02;;;2.33;;
18610;SDS011;9435;52.122;5.502;2023-03-14T01:24:02;8.40;;;2.10;;
18610;SDS011;9435;52.122;5.502;2023-03-14T01:26:32;13.00;;;2.05;;
18610;SDS011;9435;52.122;5.502;2023-03-14T01:29:02;13.45;;;2.03;;
18610;SDS011;9435;52.122;5.502;2023-03-14T01:31:30;11.65;;;2.00;;
18610;SDS011;9435;52.122;5.502;2023-03-14T01:33:57;12.93;;;2.13;;
18610;SDS011;9435;52.122;5.502;2023-03-14T01:36:24;11.38;;;2.08;;
18610;SDS011;9435;52.122;5.502;2023-03-14T01:38:51;9.05;;;1.95;;
18610;SDS011;9435;52.122;5.502;2023-03-14T01:41:20;10.35;;;2.20;;
18610;SDS011;9435;52.122;5.502;2023-03-14T01:43:49;13.43;;;2.20;;
18610;SDS011;9435;52.122;5.502;2023-03-14T01:46:22;9.40;;;2.20;;
18610;SDS011;9435;52.122;5.502;2023-03-14T01:48:53;15.25;;;2.22;;
18610;SDS011;9435;52.122;5.502;2023-03-14T01:51:26;12.13;;;2.35;;
18610;SDS011;9435;52.122;5.502;2023-03-14T01:54:02;13.32;;;2.25;;
18610;SDS011;9435;52.122;5.502;2023-03-14T01:56:32;14.02;;;2.08;;
18610;SDS011;9435;52.122;5.502;2023-03-14T01:59:00;9.05;;;2.03;;
18610;SDS011;9435;52.122;5.502;2023-03-14T02:01:31;12.35;;;2.10;;
18610;SDS011;9435;52.122;5.502;2023-03-14T02:03:59;13.73;;;2.03;;
18610;SDS011;9435;52.122;5.502;2023-03-14T02:06:31;15.98;;;2.08;;
18610;SDS011;9435;52.122;5.502;2023-03-14T02:09:05;13.25;;;2.17;;
18610;SDS011;9435;52.122;5.502;2023-03-14T02:11:32;16.02;;;2.10;;
18610;SDS011;9435;52.122;5.502;2023-03-14T02:13:59;12.38;;;1.73;;
18610;SDS011;9435;52.122;5.502;2023-03-14T02:16:27;13.75;;;2.20;;
18610;SDS011;9435;52.122;5.502;2023-03-14T02:18:56;13.13;;;2.30;;
18610;SDS011;9435;52.122;5.502;2023-03-14T02:21:23;14.20;;;2.45;;
18610;SDS011;9435;52.122;5.502;2023-03-14T02:24:03;12.52;;;2.15;;
18610;SDS011;9435;52.122;5.502;2023-03-14T02:26:38;14.65;;;2.50;;
18610;SDS011;9435;52.122;5.502;2023-03-14T02:29:10;12.20;;;1.80;;
18610;SDS011;9435;52.122;5.502;2023-03-14T02:31:38;11.13;;;2.03;;
18610;SDS011;9435;52.122;5.502;2023-03-14T02:34:05;10.93;;;1.75;;
18610;SDS011;9435;52.122;5.502;2023-03-14T02:36:32;14.60;;;2.30;;
18610;SDS011;9435;52.122;5.502;2023-03-14T02:39:01;11.65;;;2.60;;
18610;SDS011;9435;52.122;5.502;2023-03-14T02:41:33;10.38;;;2.63;;
18610;SDS011;9435;52.122;5.502;2023-03-14T02:44:01;10.98;;;3.08;;
18610;SDS011;9435;52.122;5.502;2023-03-14T02:46:29;16.77;;;3.45;;
18610;SDS011;9435;52.122;5.502;2023-03-14T02:48:57;14.07;;;3.50;;
18610;SDS011;9435;52.122;5.502;2023-03-14T02:51:28;14.23;;;3.78;;
18610;SDS011;9435;52.122;5.502;2023-03-14T02:53:55;15.27;;;3.92;;
18610;SDS011;9435;52.122;5.502;2023-03-14T02:56:23;17.98;;;4.00;;
18610;SDS011;9435;52.122;5.502;2023-03-14T02:58:50;14.57;;;3.95;;
18610;SDS011;9435;52.122;5.502;2023-03-14T03:01:17;16.63;;;3.90;;
18610;SDS011;9435;52.122;5.502;2023-03-14T03:03:45;13.63;;;3.72;;
18610;SDS011;9435;52.122;5.502;2023-03-14T03:06:12;15.05;;;4.00;;
18610;SDS011;9435;52.122;5.502;2023-03-14T03:08:39;14.88;;;3.67;;
18610;SDS011;9435;52.122;5.502;2023-03-14T03:11:06;18.70;;;3.92;;
18610;SDS011;9435;52.122;5.502;2023-03-14T03:13:34;14.32;;;3.55;;
18610;SDS011;9435;52.122;5.502;2023-03-14T03:16:01;14.02;;;3.75;;
18610;SDS011;9435;52.122;5.502;2023-03-14T03:18:29;16.23;;;4.07;;
18610;SDS011;9435;52.122;5.502;2023-03-14T03:21:00;22.08;;;4.05;;
18610;SDS011;9435;52.122;5.502;2023-03-14T03:23:28;17.15;;;3.85;;
18610;SDS011;9435;52.122;5.502;2023-03-14T03:25:55;16.63;;;3.58;;
18610;SDS011;9435;52.122;5.502;2023-03-14T03:28:22;14.98;;;3.17;;
18610;SDS011;9435;52.122;5.502;2023-03-14T03:30:49;14.43;;;3.13;;
18610;SDS011;9435;52.122;5.502;2023-03-14T03:33:16;12.27;;;2.85;;
18610;SDS011;9435;52.122;5.502;2023-03-14T03:35:44;13.93;;;2.97;;
18610;SDS011;9435;52.122;5.502;2023-03-14T03:38:13;13.48;;;2.58;;
18610;SDS011;9435;52.122;5.502;2023-03-14T03:40:41;13.35;;;2.90;;
18610;SDS011;9435;52.122;5.502;2023-03-14T03:43:09;12.23;;;2.97;;
18610;SDS011;9435;52.122;5.502;2023-03-14T03:45:36;13.48;;;3.20;;
18610;SDS011;9435;52.122;5.502;2023-03-14T03:48:03;14.23;;;2.88;;
18610;SDS011;9435;52.122;5.502;2023-03-14T03:50:30;11.25;;;2.80;;
18610;SDS011;9435;52.122;5.502;2023-03-14T03:52:57;13.70;;;3.20;;
18610;SDS011;9435;52.122;5.502;2023-03-14T03:55:26;13.25;;;2.72;;
18610;SDS011;9435;52.122;5.502;2023-03-14T03:57:53;13.60;;;3.05;;
18610;SDS011;9435;52.122;5.502;2023-03-14T04:00:20;14.55;;;3.17;;
18610;SDS011;9435;52.122;5.502;2023-03-14T04:02:47;14.85;;;3.10;;
18610;SDS011;9435;52.122;5.502;2023-03-14T04:05:14;16.85;;;2.78;;
18610;SDS011;9435;52.122;5.502;2023-03-14T04:07:42;12.27;;;2.95;;
18610;SDS011;9435;52.122;5.502;2023-03-14T04:10:09;12.90;;;2.53;;
18610;SDS011;9435;52.122;5.502;2023-03-14T04:12:38;12.38;;;2.85;;
18610;SDS011;9435;52.122;5.502;2023-03-14T04:15:05;14.35;;;3.00;;
18610;SDS011;9435;52.122;5.502;2023-03-14T04:17:33;17.73;;;2.85;;
18610;SDS011;9435;52.122;5.502;2023-03-14T04:20:00;13.80;;;2.80;;
18610;SDS011;9435;52.122;5.502;2023-03-14T04:22:28;15.98;;;2.90;;
18610;SDS011;9435;52.122;5.502;2023-03-14T04:24:55;11.25;;;2.65;;
18610;SDS011;9435;52.122;5.502;2023-03-14T04:27:27;14.13;;;2.58;;
18610;SDS011;9435;52.122;5.502;2023-03-14T04:29:57;11.85;;;2.50;;
18610;SDS011;9435;52.122;5.502;2023-03-14T04:32:26;13.98;;;2.72;;
18610;SDS011;9435;52.122;5.502;2023-03-14T04:34:53;14.40;;;2.42;;
18610;SDS011;9435;52.122;5.502;2023-03-14T04:37:20;14.35;;;2.50;;
18610;SDS011;9435;52.122;5.502;2023-03-14T04:39:47;10.38;;;2.45;;
18610;SDS011;9435;52.122;5.502;2023-03-14T04:42:14;12.65;;;2.35;;
18610;SDS011;9435;52.122;5.502;2023-03-14T04:44:41;14.10;;;2.58;;
18610;SDS011;9435;52.122;5.502;2023-03-14T04:47:10;17.33;;;2.90;;
18610;SDS011;9435;52.122;5.502;2023-03-14T04:49:37;12.05;;;2.63;;
18610;SDS011;9435;52.122;5.502;2023-03-14T04:52:04;15.38;;;3.03;;
18610;SDS011;9435;52.122;5.502;2023-03-14T04:54:31;10.45;;;2.88;;
18610;SDS011;9435;52.122;5.502;2023-03-14T04:56:58;16.60;;;2.70;;
18610;SDS011;9435;52.122;5.502;2023-03-14T04:59:25;12.27;;;3.00;;
18610;SDS011;9435;52.122;5.502;2023-03-14T05:01:52;12.98;;;3.25;;
18610;SDS011;9435;52.122;5.502;2023-03-14T05:04:20;13.90;;;3.17;;
18610;SDS011;9435;52.122;5.502;2023-03-14T05:06:47;14.07;;;2.88;;
18610;SDS011;9435;52.122;5.502;2023-03-14T05:09:14;13.68;;;3.13;;
18610;SDS011;9435;52.122;5.502;2023-03-14T05:11:41;11.82;;;2.95;;
18610;SDS011;9435;52.122;5.502;2023-03-14T05:14:08;10.50;;;3.00;;
18610;SDS011;9435;52.122;5.502;2023-03-14T05:16:35;13.45;;;3.20;;
18610;SDS011;9435;52.122;5.502;2023-03-14T05:19:02;9.23;;;2.70;;
18610;SDS011;9435;52.122;5.502;2023-03-14T05:21:31;11.07;;;3.13;;
18610;SDS011;9435;52.122;5.502;2023-03-14T05:24:01;14.70;;;3.00;;
18610;SDS011;9435;52.122;5.502;2023-03-14T05:26:33;9.93;;;3.28;;
18610;SDS011;9435;52.122;5.502;2023-03-14T05:29:04;10.43;;;3.35;;
18610;SDS011;9435;52.122;5.502;2023-03-14T05:31:31;11.02;;;3.45;;
18610;SDS011;9435;52.122;5.502;2023-03-14T05:33:58;15.77;;;3.65;;
18610;SDS011;9435;52.122;5.502;2023-03-14T05:36:25;9.45;;;3.50;;
18610;SDS011;9435;52.122;5.502;2023-03-14T05:38:54;19.63;;;4.25;;
18610;SDS011;9435;52.122;5.502;2023-03-14T05:41:21;14.50;;;4.18;;
18610;SDS011;9435;52.122;5.502;2023-03-14T05:43:48;11.73;;;4.13;;
18610;SDS011;9435;52.122;5.502;2023-03-14T05:46:15;13.07;;;4.20;;
18610;SDS011;9435;52.122;5.502;2023-03-14T05:48:42;13.73;;;4.13;;
18610;SDS011;9435;52.122;5.502;2023-03-14T05:51:09;13.38;;;4.20;;
18610;SDS011;9435;52.122;5.502;2023-03-14T05:53:36;11.50;;;4.05;;
18610;SDS011;9435;52.122;5.502;2023-03-14T05:56:05;16.20;;;4.75;;
18610;SDS011;9435;52.122;5.502;2023-03-14T05:58:33;17.92;;;4.10;;
18610;SDS011;9435;52.122;5.502;2023-03-14T06:01:01;12.95;;;4.07;;
18610;SDS011;9435;52.122;5.502;2023-03-14T06:03:28;13.88;;;4.45;;
18610;SDS011;9435;52.122;5.502;2023-03-14T06:05:55;14.05;;;4.70;;
18610;SDS011;9435;52.122;5.502;2023-03-14T06:08:23;15.55;;;4.70;;
18610;SDS011;9435;52.122;5.502;2023-03-14T06:10:50;13.00;;;4.53;;
18610;SDS011;9435;52.122;5.502;2023-03-14T06:13:19;14.93;;;5.07;;
18610;SDS011;9435;52.122;5.502;2023-03-14T06:15:46;18.00;;;5.60;;
18610;SDS011;9435;52.122;5.502;2023-03-14T06:18:13;16.90;;;5.78;;
18610;SDS011;9435;52.122;5.502;2023-03-14T06:20:40;20.02;;;5.30;;
18610;SDS011;9435;52.122;5.502;2023-03-14T06:23:07;16.63;;;5.57;;
18610;SDS011;9435;52.122;5.502;2023-03-14T06:25:35;13.82;;;5.72;;
18610;SDS011;9435;52.122;5.502;2023-03-14T06:28:03;12.98;;;5.75;;
18610;SDS011;9435;52.122;5.502;2023-03-14T06:30:32;15.43;;;6.18;;
18610;SDS011;9435;52.122;5.502;2023-03-14T06:32:59;16.63;;;6.75;;
18610;SDS011;9435;52.122;5.502;2023-03-14T06:35:26;21.90;;;6.90;;
18610;SDS011;9435;52.122;5.502;2023-03-14T06:37:53;19.35;;;7.05;;
18610;SDS011;9435;52.122;5.502;2023-03-14T06:40:20;19.60;;;7.15;;
18610;SDS011;9435;52.122;5.502;2023-03-14T06:42:47;22.65;;;8.13;;
18610;SDS011;9435;52.122;5.502;2023-03-14T06:45:14;21.60;;;8.15;;
18610;SDS011;9435;52.122;5.502;2023-03-14T06:47:43;22.08;;;8.82;;
18610;SDS011;9435;52.122;5.502;2023-03-14T06:50:10;20.27;;;7.85;;
18610;SDS011;9435;52.122;5.502;2023-03-14T06:52:38;18.67;;;7.10;;
18610;SDS011;9435;52.122;5.502;2023-03-14T06:55:11;13.13;;;6.18;;
18610;SDS011;9435;52.122;5.502;2023-03-14T06:57:38;8.25;;;3.53;;
18610;SDS011;9435;52.122;5.502;2023-03-14T07:00:05;7.90;;;2.95;;
18610;SDS011;9435;52.122;5.502;2023-03-14T07:02:34;5.20;;;1.90;;
18610;SDS011;9435;52.122;5.502;2023-03-14T07:05:02;8.88;;;3.00;;
18610;SDS011;9435;52.122;5.502;2023-03-14T07:07:30;12.00;;;5.13;;
18610;SDS011;9435;52.122;5.502;2023-03-14T07:09:57;5.50;;;2.00;;
18610;SDS011;9435;52.122;5.502;2023-03-14T07:12:24;7.03;;;3.25;;
18610;SDS011;9435;52.122;5.502;2023-03-14T07:14:51;5.35;;;3.33;;
18610;SDS011;9435;52.122;5.502;2023-03-14T07:17:18;4.90;;;1.98;;
18610;SDS011;9435;52.122;5.502;2023-03-14T07:19:45;7.40;;;2.65;;
18610;SDS011;9435;52.122;5.502;2023-03-14T07:22:14;4.53;;;1.27;;
18610;SDS011;9435;52.122;5.502;2023-03-14T07:24:41;3.80;;;1.50;;
18610;SDS011;9435;52.122;5.502;2023-03-14T07:27:08;3.42;;;1.13;;
18610;SDS011;9435;52.122;5.502;2023-03-14T07:29:35;5.15;;;1.33;;
18610;SDS011;9435;52.122;5.502;2023-03-14T07:32:02;4.20;;;1.35;;
18610;SDS011;9435;52.122;5.502;2023-03-14T07:34:29;5.50;;;1.40;;
18610;SDS011;9435;52.122;5.502;2023-03-14T07:36:56;5.40;;;1.35;;
18610;SDS011;9435;52.122;5.502;2023-03-14T07:39:24;3.40;;;1.27;;
18610;SDS011;9435;52.122;5.502;2023-03-14T07:41:51;2.60;;;1.30;;
18610;SDS011;9435;52.122;5.502;2023-03-14T07:44:18;6.07;;;1.40;;
18610;SDS011;9435;52.122;5.502;2023-03-14T07:46:45;4.65;;;1.30;;
18610;SDS011;9435;52.122;5.502;2023-03-14T07:49:12;4.10;;;1.20;;
18610;SDS011;9435;52.122;5.502;2023-03-14T07:51:40;5.15;;;1.25;;
18610;SDS011;9435;52.122;5.502;2023-03-14T07:54:09;2.72;;;1.20;;
18610;SDS011;9435;52.122;5.502;2023-03-14T07:56:37;3.13;;;1.05;;
18610;SDS011;9435;52.122;5.502;2023-03-14T07:59:04;5.15;;;2.03;;
18610;SDS011;9435;52.122;5.502;2023-03-14T08:01:32;7.00;;;1.50;;
18610;SDS011;9435;52.122;5.502;2023-03-14T08:03:59;5.35;;;1.20;;
18610;SDS011;9435;52.122;5.502;2023-03-14T08:06:26;7.28;;;1.17;;
18610;SDS011;9435;52.122;5.502;2023-03-14T08:08:53;13.50;;;1.67;;
18610;SDS011;9435;52.122;5.502;2023-03-14T08:11:20;10.40;;;1.13;;
18610;SDS011;9435;52.122;5.502;2023-03-14T08:13:48;11.73;;;1.20;;
18610;SDS011;9435;52.122;5.502;2023-03-14T08:16:16;6.05;;;0.90;;
18610;SDS011;9435;52.122;5.502;2023-03-14T08:18:44;9.70;;;1.10;;
18610;SDS011;9435;52.122;5.502;2023-03-14T08:21:11;8.30;;;1.00;;
18610;SDS011;9435;52.122;5.502;2023-03-14T08:23:38;7.53;;;0.90;;
18610;SDS011;9435;52.122;5.502;2023-03-14T08:26:05;6.03;;;0.80;;
18610;SDS011;9435;52.122;5.502;2023-03-14T08:28:33;7.22;;;0.98;;
18610;SDS011;9435;52.122;5.502;2023-03-14T08:31:01;11.35;;;1.17;;
18610;SDS011;9435;52.122;5.502;2023-03-14T08:33:29;5.20;;;0.52;;
18610;SDS011;9435;52.122;5.502;2023-03-14T08:35:57;6.07;;;0.90;;
18610;SDS011;9435;52.122;5.502;2023-03-14T08:38:26;2.60;;;0.52;;
18610;SDS011;9435;52.122;5.502;2023-03-14T08:40:56;7.55;;;0.90;;
18610;SDS011;9435;52.122;5.502;2023-03-14T08:43:24;4.78;;;0.50;;
18610;SDS011;9435;52.122;5.502;2023-03-14T08:45:51;6.63;;;0.60;;
18610;SDS011;9435;52.122;5.502;2023-03-14T08:48:19;7.40;;;1.00;;
18610;SDS011;9435;52.122;5.502;2023-03-14T08:50:46;6.55;;;0.60;;
18610;SDS011;9435;52.122;5.502;2023-03-14T08:53:13;6.72;;;0.60;;
18610;SDS011;9435;52.122;5.502;2023-03-14T08:55:40;2.38;;;0.40;;
18610;SDS011;9435;52.122;5.502;2023-03-14T08:58:07;5.32;;;0.60;;
18610;SDS011;9435;52.122;5.502;2023-03-14T09:00:34;5.60;;;0.70;;
18610;SDS011;9435;52.122;5.502;2023-03-14T09:03:02;4.28;;;0.60;;
18610;SDS011;9435;52.122;5.502;2023-03-14T09:05:30;7.97;;;0.85;;
18610;SDS011;9435;52.122;5.502;2023-03-14T09:07:59;5.68;;;0.75;;
18610;SDS011;9435;52.122;5.502;2023-03-14T09:10:26;6.95;;;0.63;;
18610;SDS011;9435;52.122;5.502;2023-03-14T09:12:54;6.80;;;0.90;;
18610;SDS011;9435;52.122;5.502;2023-03-14T09:15:22;7.38;;;0.90;;
18610;SDS011;9435;52.122;5.502;2023-03-14T09:17:49;8.80;;;1.00;;
18610;SDS011;9435;52.122;5.502;2023-03-14T09:20:16;3.97;;;0.68;;
18610;SDS011;9435;52.122;5.502;2023-03-14T09:22:44;10.35;;;0.70;;
18610;SDS011;9435;52.122;5.502;2023-03-14T09:25:12;7.32;;;0.95;;
18610;SDS011;9435;52.122;5.502;2023-03-14T09:27:39;9.20;;;1.08;;
18610;SDS011;9435;52.122;5.502;2023-03-14T09:30:06;16.15;;;1.55;;
18610;SDS011;9435;52.122;5.502;2023-03-14T09:32:34;12.07;;;1.23;;
18610;SDS011;9435;52.122;5.502;2023-03-14T09:35:01;10.68;;;1.38;;
18610;SDS011;9435;52.122;5.502;2023-03-14T09:37:29;9.93;;;1.30;;
18610;SDS011;9435;52.122;5.502;2023-03-14T09:39:58;14.85;;;1.40;;
18610;SDS011;9435;52.122;5.502;2023-03-14T09:42:25;15.88;;;1.60;;
18610;SDS011;9435;52.122;5.502;2023-03-14T09:44:54;15.75;;;2.05;;
18610;SDS011;9435;52.122;5.502;2023-03-14T09:47:25;15.48;;;1.63;;
18610;SDS011;9435;52.122;5.502;2023-03-14T09:49:53;16.40;;;1.83;;
18610;SDS011;9435;52.122;5.502;2023-03-14T09:52:21;14.85;;;1.42;;
18610;SDS011;9435;52.122;5.502;2023-03-14T09:54:52;21.35;;;2.67;;
18610;SDS011;9435;52.122;5.502;2023-03-14T09:57:23;19.10;;;1.95;;
18610;SDS011;9435;52.122;5.502;2023-03-14T09:59:52;17.77;;;2.42;;
18610;SDS011;9435;52.122;5.502;2023-03-14T10:02:24;20.83;;;2.08;;
18610;SDS011;9435;52.122;5.502;2023-03-14T10:04:53;13.40;;;1.90;;
18610;SDS011;9435;52.122;5.502;2023-03-14T10:07:22;15.15;;;2.38;;
18610;SDS011;9435;52.122;5.502;2023-03-14T10:09:54;22.23;;;2.15;;
18610;SDS011;9435;52.122;5.502;2023-03-14T10:12:28;20.30;;;2.40;;
18610;SDS011;9435;52.122;5.502;2023-03-14T10:14:57;19.13;;;2.25;;
18610;SDS011;9435;52.122;5.502;2023-03-14T10:17:29;17.00;;;1.92;;
18610;SDS011;9435;52.122;5.502;2023-03-14T10:20:06;15.85;;;1.80;;
18610;SDS011;9435;52.122;5.502;2023-03-14T10:22:52;22.85;;;2.42;;
18610;SDS011;9435;52.122;5.502;2023-03-14T10:25:25;13.85;;;1.70;;
18610;SDS011;9435;52.122;5.502;2023-03-14T10:27:55;20.05;;;2.42;;
18610;SDS011;9435;52.122;5.502;2023-03-14T10:30:38;20.42;;;2.45;;
18610;SDS011;9435;52.122;5.502;2023-03-14T10:33:09;18.48;;;2.22;;
18610;SDS011;9435;52.122;5.502;2023-03-14T10:35:41;19.73;;;1.95;;
18610;SDS011;9435;52.122;5.502;2023-03-14T10:38:12;18.42;;;2.00;;
18610;SDS011;9435;52.122;5.502;2023-03-14T10:40:40;19.95;;;2.10;;
18610;SDS011;9435;52.122;5.502;2023-03-14T10:43:16;14.90;;;1.85;;
18610;SDS011;9435;52.122;5.502;2023-03-14T10:45:51;22.23;;;2.30;;
18610;SDS011;9435;52.122;5.502;2023-03-14T10:48:23;23.02;;;2.22;;
18610;SDS011;9435;52.122;5.502;2023-03-14T10:50:56;23.05;;;2.53;;
18610;SDS011;9435;52.122;5.502;2023-03-14T10:53:24;22.38;;;2.33;;
18610;SDS011;9435;52.122;5.502;2023-03-14T10:55:52;14.85;;;2.10;;
18610;SDS011;9435;52.122;5.502;2023-03-14T10:58:21;20.30;;;2.58;;
18610;SDS011;9435;52.122;5.502;2023-03-14T11:00:52;24.38;;;2.65;;
18610;SDS011;9435;52.122;5.502;2023-03-14T11:03:26;20.50;;;2.40;;
18610;SDS011;9435;52.122;5.502;2023-03-14T11:05:57;21.52;;;2.45;;
18610;SDS011;9435;52.122;5.502;2023-03-14T11:08:27;21.73;;;2.80;;
18610;SDS011;9435;52.122;5.502;2023-03-14T11:11:04;22.80;;;2.83;;
18610;SDS011;9435;52.122;5.502;2023-03-14T11:13:39;21.02;;;2.30;;
18610;SDS011;9435;52.122;5.502;2023-03-14T11:16:15;16.92;;;2.05;;
18610;SDS011;9435;52.122;5.502;2023-03-14T11:18:51;17.83;;;1.88;;
18610;SDS011;9435;52.122;5.502;2023-03-14T11:21:35;18.33;;;2.22;;
18610;SDS011;9435;52.122;5.502;2023-03-14T11:24:11;16.73;;;2.22;;
18610;SDS011;9435;52.122;5.502;2023-03-14T11:27:03;21.48;;;2.40;;
18610;SDS011;9435;52.122;5.502;2023-03-14T11:29:40;18.50;;;2.13;;
18610;SDS011;9435;52.122;5.502;2023-03-14T11:32:12;19.60;;;2.28;;
18610;SDS011;9435;52.122;5.502;2023-03-14T11:34:44;18.58;;;2.13;;
18610;SDS011;9435;52.122;5.502;2023-03-14T11:37:20;14.52;;;2.08;;
18610;SDS011;9435;52.122;5.502;2023-03-14T11:39:55;19.58;;;1.92;;
18610;SDS011;9435;52.122;5.502;2023-03-14T11:42:27;17.27;;;2.40;;
18610;SDS011;9435;52.122;5.502;2023-03-14T11:44:58;16.45;;;2.00;;
18610;SDS011;9435;52.122;5.502;2023-03-14T11:47:29;16.70;;;1.73;;
18610;SDS011;9435;52.122;5.502;2023-03-14T11:50:00;18.42;;;1.90;;
18610;SDS011;9435;52.122;5.502;2023-03-14T11:52:32;16.95;;;1.90;;
18610;SDS011;9435;52.122;5.502;2023-03-14T11:55:03;18.00;;;1.95;;
18610;SDS011;9435;52.122;5.502;2023-03-14T11:57:36;16.92;;;1.80;;
18610;SDS011;9435;52.122;5.502;2023-03-14T12:00:12;15.32;;;2.08;;
18610;SDS011;9435;52.122;5.502;2023-03-14T12:02:45;14.65;;;1.80;;
18610;SDS011;9435;52.122;5.502;2023-03-14T12:11:19;11.68;;;1.50;;
18610;SDS011;9435;52.122;5.502;2023-03-14T12:13:57;12.02;;;1.65;;
18610;SDS011;9435;52.122;5.502;2023-03-14T12:16:38;10.07;;;1.45;;
18610;SDS011;9435;52.122;5.502;2023-03-14T12:19:23;17.33;;;1.80;;
18610;SDS011;9435;52.122;5.502;2023-03-14T12:24:57;16.52;;;1.88;;
18610;SDS011;9435;52.122;5.502;2023-03-14T12:27:46;11.07;;;1.60;;
18610;SDS011;9435;52.122;5.502;2023-03-14T12:30:32;10.63;;;1.40;;
18610;SDS011;9435;52.122;5.502;2023-03-14T12:36:04;15.38;;;1.77;;
18610;SDS011;9435;52.122;5.502;2023-03-14T12:38:46;14.02;;;1.50;;
18610;SDS011;9435;52.122;5.502;2023-03-14T12:41:24;13.55;;;1.60;;
18610;SDS011;9435;52.122;5.502;2023-03-14T12:43:55;8.98;;;1.48;;
18610;SDS011;9435;52.122;5.502;2023-03-14T12:46:23;14.07;;;3.45;;
18610;SDS011;9435;52.122;5.502;2023-03-14T12:48:56;13.30;;;1.75;;
18610;SDS011;9435;52.122;5.502;2023-03-14T12:51:34;10.05;;;1.55;;
18610;SDS011;9435;52.122;5.502;2023-03-14T12:54:25;13.68;;;1.42;;
18610;SDS011;9435;52.122;5.502;2023-03-14T12:59:55;10.00;;;1.30;;
18610;SDS011;9435;52.122;5.502;2023-03-14T13:02:24;8.68;;;1.10;;
18610;SDS011;9435;52.122;5.502;2023-03-14T13:04:59;8.60;;;1.38;;
18610;SDS011;9435;52.122;5.502;2023-03-14T13:07:33;6.13;;;0.80;;
18610;SDS011;9435;52.122;5.502;2023-03-14T13:10:05;7.15;;;1.17;;
18610;SDS011;9435;52.122;5.502;2023-03-14T13:12:48;10.93;;;1.20;;
18610;SDS011;9435;52.122;5.502;2023-03-14T13:15:27;10.35;;;1.27;;
18610;SDS011;9435;52.122;5.502;2023-03-14T13:17:59;6.35;;;1.10;;
18610;SDS011;9435;52.122;5.502;2023-03-14T13:20:31;9.43;;;1.05;;
18610;SDS011;9435;52.122;5.502;2023-03-14T13:23:01;9.00;;;1.30;;
18610;SDS011;9435;52.122;5.502;2023-03-14T13:25:29;9.60;;;1.40;;
18610;SDS011;9435;52.122;5.502;2023-03-14T13:27:59;11.45;;;2.17;;
18610;SDS011;9435;52.122;5.502;2023-03-14T13:30:28;7.32;;;1.30;;
18610;SDS011;9435;52.122;5.502;2023-03-14T13:33:03;11.18;;;1.13;;
18610;SDS011;9435;52.122;5.502;2023-03-14T13:35:40;5.28;;;0.90;;
18610;SDS011;9435;52.122;5.502;2023-03-14T13:38:14;10.07;;;0.98;;
18610;SDS011;9435;52.122;5.502;2023-03-14T13:40:43;6.03;;;1.00;;
18610;SDS011;9435;52.122;5.502;2023-03-14T13:43:16;11.52;;;1.30;;
18610;SDS011;9435;52.122;5.502;2023-03-14T13:45:48;7.32;;;0.90;;
18610;SDS011;9435;52.122;5.502;2023-03-14T13:48:20;4.97;;;1.10;;
18610;SDS011;9435;52.122;5.502;2023-03-14T13:50:53;7.30;;;1.20;;
18610;SDS011;9435;52.122;5.502;2023-03-14T13:53:22;5.57;;;1.13;;
18610;SDS011;9435;52.122;5.502;2023-03-14T13:55:50;8.02;;;1.20;;
18610;SDS011;9435;52.122;5.502;2023-03-14T13:58:21;8.23;;;1.27;;
18610;SDS011;9435;52.122;5.502;2023-03-14T14:00:58;7.72;;;1.23;;
18610;SDS011;9435;52.122;5.502;2023-03-14T14:03:28;6.82;;;1.20;;
18610;SDS011;9435;52.122;5.502;2023-03-14T14:05:59;7.35;;;1.10;;
18610;SDS011;9435;52.122;5.502;2023-03-14T14:08:26;9.65;;;1.20;;
18610;SDS011;9435;52.122;5.502;2023-03-14T14:10:54;5.60;;;1.17;;
18610;SDS011;9435;52.122;5.502;2023-03-14T14:13:26;9.82;;;1.20;;
18610;SDS011;9435;52.122;5.502;2023-03-14T14:15:55;10.60;;;1.42;;
18610;SDS011;9435;52.122;5.502;2023-03-14T14:18:26;14.30;;;1.30;;
18610;SDS011;9435;52.122;5.502;2023-03-14T14:20:54;9.07;;;1.45;;
18610;SDS011;9435;52.122;5.502;2023-03-14T14:23:24;10.82;;;1.45;;
18610;SDS011;9435;52.122;5.502;2023-03-14T14:25:54;5.82;;;1.17;;
18610;SDS011;9435;52.122;5.502;2023-03-14T14:28:24;5.97;;;1.10;;
18610;SDS011;9435;52.122;5.502;2023-03-14T14:31:01;8.13;;;1.35;;
18610;SDS011;9435;52.122;5.502;2023-03-14T14:33:37;6.43;;;1.10;;
18610;SDS011;9435;52.122;5.502;2023-03-14T14:36:05;7.25;;;1.17;;
18610;SDS011;9435;52.122;5.502;2023-03-14T14:38:44;9.20;;;1.10;;
18610;SDS011;9435;52.122;5.502;2023-03-14T14:41:16;6.53;;;1.10;;
18610;SDS011;9435;52.122;5.502;2023-03-14T14:43:44;10.65;;;1.02;;
18610;SDS011;9435;52.122;5.502;2023-03-14T14:46:13;10.20;;;1.45;;
18610;SDS011;9435;52.122;5.502;2023-03-14T14:48:44;7.88;;;1.35;;
18610;SDS011;9435;52.122;5.502;2023-03-14T14:51:23;8.13;;;1.40;;
18610;SDS011;9435;52.122;5.502;2023-03-14T14:54:04;9.63;;;1.05;;
18610;SDS011;9435;52.122;5.502;2023-03-14T14:56:38;9.95;;;1.35;;
18610;SDS011;9435;52.122;5.502;2023-03-14T14:59:06;8.07;;;1.35;;
18610;SDS011;9435;52.122;5.502;2023-03-14T15:01:45;6.38;;;1.10;;
18610;SDS011;9435;52.122;5.502;2023-03-14T15:04:15;10.57;;;1.17;;
18610;SDS011;9435;52.122;5.502;2023-03-14T15:06:42;13.25;;;1.40;;
18610;SDS011;9435;52.122;5.502;2023-03-14T15:09:14;6.55;;;1.20;;
18610;SDS011;9435;52.122;5.502;2023-03-14T15:11:43;8.35;;;1.50;;
18610;SDS011;9435;52.122;5.502;2023-03-14T15:14:10;13.13;;;3.65;;
18610;SDS011;9435;52.122;5.502;2023-03-14T15:16:37;13.70;;;2.40;;
18610;SDS011;9435;52.122;5.502;2023-03-14T15:19:10;13.73;;;2.08;;